CheckWX is a tool to help pilots better visualize weather data.  It is not intended as a substitute for an official pre-flight weather briefing.

01:06:35 UTC

BIIS METAR
Ísafjörður Airport
Ísafjörður, Iceland
Current

8 hours ago

BIIS 231649Z 21009KT 9999 FEW025 BKN035 06/01 Q0981
Observed
Feb-23 @ 16:49 UTC
Wind
  • 210° at 9 KTS
Visibility
10,000+ meters
Flight Rules
VFR
Cloud Levels
  • Few at 2,500' AGL
  • Broken at 3,500' AGL
Temperature
C / 43°F
Dewpoint
C / 34°F
Humidity
71%
Altimeter
28.97" Hg
Pressure
980.92 hPa
Previous

9 hours ago

BIIS 231600Z VRB05KT 9999 FEW025 BKN035 05/02 Q0980
Observed
Feb-23 @ 16:00 UTC
Wind
  • Variable at 5 KTS
Visibility
10,000+ meters
Flight Rules
VFR
Cloud Levels
  • Few at 2,500' AGL
  • Broken at 3,500' AGL
Temperature
C / 41°F
Dewpoint
C / 36°F
Humidity
81%
Altimeter
28.94" Hg
Pressure
979.92 hPa
Previous

10 hours ago

BIIS 231500Z 04008KT 9999 FEW025 BKN035 04/02 Q0979
Observed
Feb-23 @ 15:00 UTC
Wind
  • 040° at 8 KTS
Visibility
10,000+ meters
Flight Rules
VFR
Cloud Levels
  • Few at 2,500' AGL
  • Broken at 3,500' AGL
Temperature
C / 39°F
Dewpoint
C / 36°F
Humidity
87%
Altimeter
28.91" Hg
Pressure
978.92 hPa